sensor_id;sensor_type;location;lat;lon;timestamp;P1;durP1;ratioP1;P2;durP2;ratioP2
13866;SDS011;7003;46.982;15.248;2022-12-01T00:01:11;6.10;;;4.03;;
13866;SDS011;7003;46.982;15.248;2022-12-01T00:03:58;5.27;;;4.77;;
13866;SDS011;7003;46.982;15.248;2022-12-01T00:06:26;4.67;;;4.07;;
13866;SDS011;7003;46.982;15.248;2022-12-01T00:08:55;7.17;;;5.30;;
13866;SDS011;7003;46.982;15.248;2022-12-01T00:11:41;8.03;;;5.20;;
13866;SDS011;7003;46.982;15.248;2022-12-01T00:14:10;7.70;;;4.33;;
13866;SDS011;7003;46.982;15.248;2022-12-01T00:16:42;7.50;;;4.90;;
13866;SDS011;7003;46.982;15.248;2022-12-01T00:19:10;5.43;;;4.93;;
13866;SDS011;7003;46.982;15.248;2022-12-01T00:21:40;6.23;;;5.63;;
13866;SDS011;7003;46.982;15.248;2022-12-01T00:24:09;6.43;;;4.60;;
13866;SDS011;7003;46.982;15.248;2022-12-01T00:26:40;6.67;;;5.23;;
13866;SDS011;7003;46.982;15.248;2022-12-01T00:29:07;7.93;;;5.37;;
13866;SDS011;7003;46.982;15.248;2022-12-01T00:31:38;6.63;;;5.27;;
13866;SDS011;7003;46.982;15.248;2022-12-01T00:34:10;8.93;;;6.87;;
13866;SDS011;7003;46.982;15.248;2022-12-01T00:36:50;6.10;;;5.37;;
13866;SDS011;7003;46.982;15.248;2022-12-01T00:39:17;8.93;;;8.03;;
13866;SDS011;7003;46.982;15.248;2022-12-01T00:41:47;8.50;;;6.73;;
13866;SDS011;7003;46.982;15.248;2022-12-01T00:44:15;9.50;;;7.50;;
13866;SDS011;7003;46.982;15.248;2022-12-01T00:46:46;9.47;;;5.80;;
13866;SDS011;7003;46.982;15.248;2022-12-01T00:49:23;8.20;;;5.97;;
13866;SDS011;7003;46.982;15.248;2022-12-01T00:51:57;8.80;;;6.83;;
13866;SDS011;7003;46.982;15.248;2022-12-01T00:54:25;9.37;;;7.37;;
13866;SDS011;7003;46.982;15.248;2022-12-01T00:57:08;8.80;;;7.40;;
13866;SDS011;7003;46.982;15.248;2022-12-01T00:59:40;10.33;;;7.27;;
13866;SDS011;7003;46.982;15.248;2022-12-01T01:02:13;8.93;;;6.80;;
13866;SDS011;7003;46.982;15.248;2022-12-01T01:05:00;14.33;;;6.67;;
13866;SDS011;7003;46.982;15.248;2022-12-01T01:07:28;8.60;;;5.93;;
13866;SDS011;7003;46.982;15.248;2022-12-01T01:10:00;8.13;;;5.33;;
13866;SDS011;7003;46.982;15.248;2022-12-01T01:12:37;11.43;;;6.73;;
13866;SDS011;7003;46.982;15.248;2022-12-01T01:15:06;8.33;;;5.63;;
13866;SDS011;7003;46.982;15.248;2022-12-01T01:17:38;8.83;;;7.37;;
13866;SDS011;7003;46.982;15.248;2022-12-01T01:20:07;7.83;;;6.47;;
13866;SDS011;7003;46.982;15.248;2022-12-01T01:22:36;6.00;;;5.40;;
13866;SDS011;7003;46.982;15.248;2022-12-01T01:25:06;9.87;;;6.50;;
13866;SDS011;7003;46.982;15.248;2022-12-01T01:27:35;8.00;;;5.67;;
13866;SDS011;7003;46.982;15.248;2022-12-01T01:30:07;12.20;;;6.43;;
13866;SDS011;7003;46.982;15.248;2022-12-01T01:32:40;8.03;;;6.20;;
13866;SDS011;7003;46.982;15.248;2022-12-01T01:35:10;10.43;;;6.67;;
13866;SDS011;7003;46.982;15.248;2022-12-01T01:37:38;6.23;;;5.30;;
13866;SDS011;7003;46.982;15.248;2022-12-01T01:40:10;6.17;;;4.70;;
13866;SDS011;7003;46.982;15.248;2022-12-01T01:42:38;9.60;;;6.20;;
13866;SDS011;7003;46.982;15.248;2022-12-01T01:45:18;11.60;;;6.53;;
13866;SDS011;7003;46.982;15.248;2022-12-01T01:47:51;5.17;;;4.37;;
13866;SDS011;7003;46.982;15.248;2022-12-01T01:50:21;6.77;;;5.70;;
13866;SDS011;7003;46.982;15.248;2022-12-01T01:52:54;8.70;;;6.20;;
13866;SDS011;7003;46.982;15.248;2022-12-01T01:55:28;9.23;;;5.77;;
13866;SDS011;7003;46.982;15.248;2022-12-01T01:57:59;11.33;;;5.90;;
13866;SDS011;7003;46.982;15.248;2022-12-01T02:00:28;10.70;;;5.87;;
13866;SDS011;7003;46.982;15.248;2022-12-01T02:02:57;9.70;;;6.63;;
13866;SDS011;7003;46.982;15.248;2022-12-01T02:05:28;8.97;;;6.10;;
13866;SDS011;7003;46.982;15.248;2022-12-01T02:07:58;7.63;;;4.93;;
13866;SDS011;7003;46.982;15.248;2022-12-01T02:10:28;6.50;;;5.90;;
13866;SDS011;7003;46.982;15.248;2022-12-01T02:13:07;9.00;;;6.43;;
13866;SDS011;7003;46.982;15.248;2022-12-01T02:15:44;5.60;;;5.10;;
13866;SDS011;7003;46.982;15.248;2022-12-01T02:18:21;10.13;;;6.30;;
13866;SDS011;7003;46.982;15.248;2022-12-01T02:24:04;6.13;;;4.27;;
13866;SDS011;7003;46.982;15.248;2022-12-01T02:26:51;5.57;;;4.77;;
13866;SDS011;7003;46.982;15.248;2022-12-01T02:32:46;7.07;;;4.00;;
13866;SDS011;7003;46.982;15.248;2022-12-01T02:35:24;6.90;;;4.97;;
13866;SDS011;7003;46.982;15.248;2022-12-01T02:38:20;8.20;;;6.23;;
13866;SDS011;7003;46.982;15.248;2022-12-01T02:40:59;5.30;;;4.30;;
13866;SDS011;7003;46.982;15.248;2022-12-01T02:43:36;3.77;;;3.13;;
13866;SDS011;7003;46.982;15.248;2022-12-01T02:46:10;5.07;;;4.30;;
13866;SDS011;7003;46.982;15.248;2022-12-01T02:48:43;4.90;;;4.40;;
13866;SDS011;7003;46.982;15.248;2022-12-01T02:51:18;7.83;;;4.27;;
13866;SDS011;7003;46.982;15.248;2022-12-01T02:53:51;4.07;;;3.67;;
13866;SDS011;7003;46.982;15.248;2022-12-01T02:56:33;7.57;;;5.03;;
13866;SDS011;7003;46.982;15.248;2022-12-01T02:59:00;6.77;;;4.97;;
13866;SDS011;7003;46.982;15.248;2022-12-01T03:01:36;8.30;;;5.23;;
13866;SDS011;7003;46.982;15.248;2022-12-01T03:04:28;4.13;;;3.70;;
13866;SDS011;7003;46.982;15.248;2022-12-01T03:07:17;5.30;;;4.30;;
13866;SDS011;7003;46.982;15.248;2022-12-01T03:10:09;8.50;;;4.93;;
13866;SDS011;7003;46.982;15.248;2022-12-01T03:12:46;6.00;;;4.73;;
13866;SDS011;7003;46.982;15.248;2022-12-01T03:15:27;4.93;;;4.20;;
13866;SDS011;7003;46.982;15.248;2022-12-01T03:18:01;5.17;;;3.77;;
13866;SDS011;7003;46.982;15.248;2022-12-01T03:20:43;10.67;;;4.03;;
13866;SDS011;7003;46.982;15.248;2022-12-01T03:23:20;5.03;;;3.30;;
13866;SDS011;7003;46.982;15.248;2022-12-01T03:25:51;3.67;;;2.80;;
13866;SDS011;7003;46.982;15.248;2022-12-01T03:28:27;3.20;;;2.43;;
13866;SDS011;7003;46.982;15.248;2022-12-01T03:30:57;3.73;;;3.07;;
13866;SDS011;7003;46.982;15.248;2022-12-01T03:33:35;3.67;;;2.57;;
13866;SDS011;7003;46.982;15.248;2022-12-01T03:36:09;4.80;;;3.00;;
13866;SDS011;7003;46.982;15.248;2022-12-01T03:38:43;3.50;;;2.97;;
13866;SDS011;7003;46.982;15.248;2022-12-01T03:41:18;2.80;;;2.07;;
13866;SDS011;7003;46.982;15.248;2022-12-01T03:43:51;3.43;;;2.80;;
13866;SDS011;7003;46.982;15.248;2022-12-01T03:46:24;2.97;;;2.67;;
13866;SDS011;7003;46.982;15.248;2022-12-01T03:48:58;6.07;;;3.23;;
13866;SDS011;7003;46.982;15.248;2022-12-01T03:51:29;3.23;;;2.93;;
13866;SDS011;7003;46.982;15.248;2022-12-01T03:54:06;2.63;;;2.43;;
13866;SDS011;7003;46.982;15.248;2022-12-01T03:56:42;2.87;;;2.57;;
13866;SDS011;7003;46.982;15.248;2022-12-01T03:59:23;2.57;;;2.13;;
13866;SDS011;7003;46.982;15.248;2022-12-01T04:01:55;3.97;;;3.10;;
13866;SDS011;7003;46.982;15.248;2022-12-01T04:04:23;3.43;;;3.03;;
13866;SDS011;7003;46.982;15.248;2022-12-01T04:06:52;1.80;;;1.70;;
13866;SDS011;7003;46.982;15.248;2022-12-01T04:09:19;2.20;;;2.00;;
13866;SDS011;7003;46.982;15.248;2022-12-01T04:11:53;3.47;;;2.60;;
13866;SDS011;7003;46.982;15.248;2022-12-01T04:14:38;4.73;;;3.03;;
13866;SDS011;7003;46.982;15.248;2022-12-01T04:17:05;2.53;;;2.03;;
13866;SDS011;7003;46.982;15.248;2022-12-01T04:19:36;2.63;;;1.80;;
13866;SDS011;7003;46.982;15.248;2022-12-01T04:22:04;3.20;;;2.13;;
13866;SDS011;7003;46.982;15.248;2022-12-01T04:24:32;2.47;;;2.00;;
13866;SDS011;7003;46.982;15.248;2022-12-01T04:26:59;2.50;;;2.30;;
13866;SDS011;7003;46.982;15.248;2022-12-01T04:29:26;2.27;;;1.93;;
13866;SDS011;7003;46.982;15.248;2022-12-01T04:31:53;3.03;;;2.57;;
13866;SDS011;7003;46.982;15.248;2022-12-01T04:34:21;2.63;;;2.17;;
13866;SDS011;7003;46.982;15.248;2022-12-01T04:36:49;2.37;;;2.07;;
13866;SDS011;7003;46.982;15.248;2022-12-01T04:39:20;4.43;;;2.30;;
13866;SDS011;7003;46.982;15.248;2022-12-01T04:41:47;4.87;;;3.87;;
13866;SDS011;7003;46.982;15.248;2022-12-01T04:44:15;4.10;;;2.70;;
13866;SDS011;7003;46.982;15.248;2022-12-01T04:46:43;3.83;;;3.37;;
13866;SDS011;7003;46.982;15.248;2022-12-01T04:49:10;7.90;;;2.47;;
13866;SDS011;7003;46.982;15.248;2022-12-01T04:51:38;4.60;;;2.50;;
13866;SDS011;7003;46.982;15.248;2022-12-01T04:54:05;5.07;;;3.57;;
13866;SDS011;7003;46.982;15.248;2022-12-01T04:56:37;4.00;;;3.37;;
13866;SDS011;7003;46.982;15.248;2022-12-01T04:59:07;2.70;;;2.50;;
13866;SDS011;7003;46.982;15.248;2022-12-01T05:01:35;3.03;;;2.47;;
13866;SDS011;7003;46.982;15.248;2022-12-01T05:04:06;2.80;;;2.60;;
13866;SDS011;7003;46.982;15.248;2022-12-01T05:06:36;3.43;;;3.13;;
13866;SDS011;7003;46.982;15.248;2022-12-01T05:09:06;3.27;;;2.43;;
13866;SDS011;7003;46.982;15.248;2022-12-01T05:11:33;3.37;;;2.33;;
13866;SDS011;7003;46.982;15.248;2022-12-01T05:14:02;3.30;;;2.63;;
13866;SDS011;7003;46.982;15.248;2022-12-01T05:16:30;5.07;;;2.57;;
13866;SDS011;7003;46.982;15.248;2022-12-01T05:18:59;4.23;;;3.20;;
13866;SDS011;7003;46.982;15.248;2022-12-01T05:21:48;3.23;;;2.83;;
13866;SDS011;7003;46.982;15.248;2022-12-01T05:24:16;3.70;;;3.13;;
13866;SDS011;7003;46.982;15.248;2022-12-01T05:26:44;5.27;;;3.40;;
13866;SDS011;7003;46.982;15.248;2022-12-01T05:29:15;3.43;;;2.97;;
13866;SDS011;7003;46.982;15.248;2022-12-01T05:31:45;2.57;;;2.33;;
13866;SDS011;7003;46.982;15.248;2022-12-01T05:34:13;4.17;;;2.77;;
13866;SDS011;7003;46.982;15.248;2022-12-01T05:36:40;2.53;;;2.40;;
13866;SDS011;7003;46.982;15.248;2022-12-01T05:39:08;3.27;;;2.30;;
13866;SDS011;7003;46.982;15.248;2022-12-01T05:41:38;3.10;;;2.53;;
13866;SDS011;7003;46.982;15.248;2022-12-01T05:44:08;2.13;;;1.90;;
13866;SDS011;7003;46.982;15.248;2022-12-01T05:46:36;8.13;;;3.23;;
13866;SDS011;7003;46.982;15.248;2022-12-01T05:49:07;3.90;;;2.87;;
13866;SDS011;7003;46.982;15.248;2022-12-01T05:51:36;3.40;;;2.70;;
13866;SDS011;7003;46.982;15.248;2022-12-01T05:54:06;2.50;;;2.23;;
13866;SDS011;7003;46.982;15.248;2022-12-01T05:56:35;3.87;;;2.67;;
13866;SDS011;7003;46.982;15.248;2022-12-01T05:59:04;3.83;;;3.20;;
13866;SDS011;7003;46.982;15.248;2022-12-01T06:01:32;4.20;;;3.80;;
13866;SDS011;7003;46.982;15.248;2022-12-01T06:04:00;4.67;;;4.27;;
13866;SDS011;7003;46.982;15.248;2022-12-01T06:06:30;4.73;;;2.60;;
13866;SDS011;7003;46.982;15.248;2022-12-01T06:08:57;3.57;;;2.73;;
13866;SDS011;7003;46.982;15.248;2022-12-01T06:11:24;4.03;;;2.87;;
13866;SDS011;7003;46.982;15.248;2022-12-01T06:13:52;4.03;;;3.63;;
13866;SDS011;7003;46.982;15.248;2022-12-01T06:16:22;5.13;;;4.10;;
13866;SDS011;7003;46.982;15.248;2022-12-01T06:18:49;4.47;;;3.50;;
13866;SDS011;7003;46.982;15.248;2022-12-01T06:21:20;3.47;;;3.17;;
13866;SDS011;7003;46.982;15.248;2022-12-01T06:23:53;3.60;;;3.20;;
13866;SDS011;7003;46.982;15.248;2022-12-01T06:26:20;5.40;;;2.93;;
13866;SDS011;7003;46.982;15.248;2022-12-01T06:28:50;3.53;;;2.97;;
13866;SDS011;7003;46.982;15.248;2022-12-01T06:31:18;4.13;;;3.53;;
13866;SDS011;7003;46.982;15.248;2022-12-01T06:33:48;3.67;;;3.30;;
13866;SDS011;7003;46.982;15.248;2022-12-01T06:36:16;5.53;;;3.77;;
13866;SDS011;7003;46.982;15.248;2022-12-01T06:38:47;7.70;;;3.53;;
13866;SDS011;7003;46.982;15.248;2022-12-01T06:41:15;3.53;;;2.80;;
13866;SDS011;7003;46.982;15.248;2022-12-01T06:43:42;3.47;;;3.17;;
13866;SDS011;7003;46.982;15.248;2022-12-01T06:46:10;4.00;;;3.53;;
13866;SDS011;7003;46.982;15.248;2022-12-01T06:48:40;3.00;;;2.80;;
13866;SDS011;7003;46.982;15.248;2022-12-01T06:51:08;4.40;;;3.77;;
13866;SDS011;7003;46.982;15.248;2022-12-01T06:53:36;3.73;;;3.17;;
13866;SDS011;7003;46.982;15.248;2022-12-01T06:56:09;3.83;;;3.33;;
13866;SDS011;7003;46.982;15.248;2022-12-01T06:58:39;4.37;;;3.03;;
13866;SDS011;7003;46.982;15.248;2022-12-01T07:01:10;4.43;;;3.37;;
13866;SDS011;7003;46.982;15.248;2022-12-01T07:03:38;4.43;;;3.47;;
13866;SDS011;7003;46.982;15.248;2022-12-01T07:06:07;4.40;;;3.50;;
13866;SDS011;7003;46.982;15.248;2022-12-01T07:08:35;4.43;;;3.07;;
13866;SDS011;7003;46.982;15.248;2022-12-01T07:11:06;3.57;;;3.03;;
13866;SDS011;7003;46.982;15.248;2022-12-01T07:13:37;3.03;;;2.73;;
13866;SDS011;7003;46.982;15.248;2022-12-01T07:16:08;8.20;;;3.83;;
13866;SDS011;7003;46.982;15.248;2022-12-01T07:18:39;3.67;;;3.17;;
13866;SDS011;7003;46.982;15.248;2022-12-01T07:21:10;4.20;;;2.43;;
13866;SDS011;7003;46.982;15.248;2022-12-01T07:23:40;3.90;;;3.50;;
13866;SDS011;7003;46.982;15.248;2022-12-01T07:26:10;3.67;;;3.20;;
13866;SDS011;7003;46.982;15.248;2022-12-01T07:28:39;4.57;;;3.53;;
13866;SDS011;7003;46.982;15.248;2022-12-01T07:31:08;4.37;;;3.97;;
13866;SDS011;7003;46.982;15.248;2022-12-01T07:33:37;4.40;;;3.93;;
13866;SDS011;7003;46.982;15.248;2022-12-01T07:36:06;6.37;;;5.13;;
13866;SDS011;7003;46.982;15.248;2022-12-01T07:38:37;5.30;;;4.80;;
13866;SDS011;7003;46.982;15.248;2022-12-01T07:41:05;5.03;;;4.53;;
13866;SDS011;7003;46.982;15.248;2022-12-01T07:43:36;5.90;;;4.60;;
13866;SDS011;7003;46.982;15.248;2022-12-01T07:46:05;3.80;;;3.40;;
13866;SDS011;7003;46.982;15.248;2022-12-01T07:48:37;6.60;;;4.20;;
13866;SDS011;7003;46.982;15.248;2022-12-01T07:51:06;4.17;;;3.30;;
13866;SDS011;7003;46.982;15.248;2022-12-01T07:53:35;4.53;;;4.13;;
13866;SDS011;7003;46.982;15.248;2022-12-01T07:56:03;4.63;;;3.77;;
13866;SDS011;7003;46.982;15.248;2022-12-01T07:58:31;7.03;;;5.00;;
13866;SDS011;7003;46.982;15.248;2022-12-01T08:01:05;7.97;;;4.40;;
13866;SDS011;7003;46.982;15.248;2022-12-01T08:03:33;4.10;;;3.63;;
13866;SDS011;7003;46.982;15.248;2022-12-01T08:06:02;5.10;;;3.97;;
13866;SDS011;7003;46.982;15.248;2022-12-01T08:08:31;7.73;;;6.07;;
13866;SDS011;7003;46.982;15.248;2022-12-01T08:11:04;12.07;;;8.33;;
13866;SDS011;7003;46.982;15.248;2022-12-01T08:13:33;13.40;;;7.77;;
13866;SDS011;7003;46.982;15.248;2022-12-01T08:16:02;7.10;;;5.37;;
13866;SDS011;7003;46.982;15.248;2022-12-01T08:18:32;9.20;;;5.53;;
13866;SDS011;7003;46.982;15.248;2022-12-01T08:21:00;5.97;;;4.20;;
13866;SDS011;7003;46.982;15.248;2022-12-01T08:23:30;6.73;;;4.63;;
13866;SDS011;7003;46.982;15.248;2022-12-01T08:25:59;7.27;;;5.07;;
13866;SDS011;7003;46.982;15.248;2022-12-01T08:28:27;6.23;;;4.87;;
13866;SDS011;7003;46.982;15.248;2022-12-01T08:30:58;10.83;;;6.43;;
13866;SDS011;7003;46.982;15.248;2022-12-01T08:33:28;5.27;;;4.40;;
13866;SDS011;7003;46.982;15.248;2022-12-01T08:35:59;8.77;;;5.20;;
13866;SDS011;7003;46.982;15.248;2022-12-01T08:38:29;9.40;;;4.93;;
13866;SDS011;7003;46.982;15.248;2022-12-01T08:41:00;7.47;;;5.00;;
13866;SDS011;7003;46.982;15.248;2022-12-01T08:43:28;6.87;;;5.97;;
13866;SDS011;7003;46.982;15.248;2022-12-01T08:45:57;7.20;;;5.30;;
13866;SDS011;7003;46.982;15.248;2022-12-01T08:48:25;7.30;;;6.30;;
13866;SDS011;7003;46.982;15.248;2022-12-01T08:51:02;5.17;;;4.63;;
13866;SDS011;7003;46.982;15.248;2022-12-01T08:53:31;8.20;;;5.73;;
13866;SDS011;7003;46.982;15.248;2022-12-01T08:56:02;8.33;;;7.20;;
13866;SDS011;7003;46.982;15.248;2022-12-01T08:58:33;5.50;;;4.73;;
13866;SDS011;7003;46.982;15.248;2022-12-01T09:01:03;5.73;;;4.70;;
13866;SDS011;7003;46.982;15.248;2022-12-01T09:03:35;8.70;;;5.47;;
13866;SDS011;7003;46.982;15.248;2022-12-01T09:06:08;5.70;;;5.10;;
13866;SDS011;7003;46.982;15.248;2022-12-01T09:08:37;5.90;;;4.67;;
13866;SDS011;7003;46.982;15.248;2022-12-01T09:11:06;7.03;;;5.17;;
13866;SDS011;7003;46.982;15.248;2022-12-01T09:13:36;5.03;;;4.37;;
13866;SDS011;7003;46.982;15.248;2022-12-01T09:16:07;4.47;;;3.73;;
13866;SDS011;7003;46.982;15.248;2022-12-01T09:18:41;5.17;;;4.23;;
13866;SDS011;7003;46.982;15.248;2022-12-01T09:21:12;14.07;;;4.93;;
13866;SDS011;7003;46.982;15.248;2022-12-01T09:23:40;6.57;;;4.63;;
13866;SDS011;7003;46.982;15.248;2022-12-01T09:26:08;6.37;;;4.57;;
13866;SDS011;7003;46.982;15.248;2022-12-01T09:28:37;5.53;;;5.00;;
13866;SDS011;7003;46.982;15.248;2022-12-01T09:31:05;6.03;;;4.93;;
13866;SDS011;7003;46.982;15.248;2022-12-01T09:33:35;8.33;;;5.23;;
13866;SDS011;7003;46.982;15.248;2022-12-01T09:36:03;9.93;;;5.10;;
13866;SDS011;7003;46.982;15.248;2022-12-01T09:38:36;6.60;;;3.67;;
13866;SDS011;7003;46.982;15.248;2022-12-01T09:41:06;6.30;;;4.60;;
13866;SDS011;7003;46.982;15.248;2022-12-01T09:43:53;4.23;;;3.83;;
13866;SDS011;7003;46.982;15.248;2022-12-01T09:46:27;5.13;;;3.83;;
13866;SDS011;7003;46.982;15.248;2022-12-01T09:49:00;7.43;;;3.13;;
13866;SDS011;7003;46.982;15.248;2022-12-01T09:51:29;5.30;;;4.77;;
13866;SDS011;7003;46.982;15.248;2022-12-01T09:54:02;4.43;;;3.83;;
13866;SDS011;7003;46.982;15.248;2022-12-01T09:56:34;6.10;;;4.73;;
13866;SDS011;7003;46.982;15.248;2022-12-01T09:59:06;5.60;;;5.03;;
13866;SDS011;7003;46.982;15.248;2022-12-01T10:01:45;10.40;;;5.83;;
13866;SDS011;7003;46.982;15.248;2022-12-01T10:04:16;8.63;;;5.63;;
13866;SDS011;7003;46.982;15.248;2022-12-01T10:06:53;9.30;;;6.33;;
13866;SDS011;7003;46.982;15.248;2022-12-01T10:09:27;6.87;;;5.13;;
13866;SDS011;7003;46.982;15.248;2022-12-01T10:12:05;7.57;;;4.93;;
13866;SDS011;7003;46.982;15.248;2022-12-01T10:14:43;5.27;;;4.23;;
13866;SDS011;7003;46.982;15.248;2022-12-01T10:17:18;6.47;;;4.60;;
13866;SDS011;7003;46.982;15.248;2022-12-01T10:19:55;4.03;;;3.73;;
13866;SDS011;7003;46.982;15.248;2022-12-01T10:22:41;5.90;;;4.43;;
13866;SDS011;7003;46.982;15.248;2022-12-01T10:25:21;4.47;;;4.07;;
13866;SDS011;7003;46.982;15.248;2022-12-01T10:27:59;5.07;;;4.50;;
13866;SDS011;7003;46.982;15.248;2022-12-01T10:30:39;6.27;;;4.93;;
13866;SDS011;7003;46.982;15.248;2022-12-01T10:33:18;6.30;;;4.70;;
13866;SDS011;7003;46.982;15.248;2022-12-01T10:35:51;7.73;;;4.87;;
13866;SDS011;7003;46.982;15.248;2022-12-01T10:38:22;5.10;;;4.33;;
13866;SDS011;7003;46.982;15.248;2022-12-01T10:40:56;5.90;;;4.57;;
13866;SDS011;7003;46.982;15.248;2022-12-01T10:43:31;4.50;;;4.07;;
13866;SDS011;7003;46.982;15.248;2022-12-01T10:49:06;7.37;;;4.67;;
13866;SDS011;7003;46.982;15.248;2022-12-01T10:51:45;5.93;;;4.87;;
13866;SDS011;7003;46.982;15.248;2022-12-01T10:54:18;6.50;;;4.90;;
13866;SDS011;7003;46.982;15.248;2022-12-01T10:56:49;7.07;;;5.33;;
13866;SDS011;7003;46.982;15.248;2022-12-01T10:59:26;5.97;;;4.60;;
13866;SDS011;7003;46.982;15.248;2022-12-01T11:02:00;6.33;;;4.90;;
13866;SDS011;7003;46.982;15.248;2022-12-01T11:04:33;4.73;;;4.00;;
13866;SDS011;7003;46.982;15.248;2022-12-01T11:07:19;6.97;;;4.83;;
13866;SDS011;7003;46.982;15.248;2022-12-01T11:10:02;5.83;;;4.23;;
13866;SDS011;7003;46.982;15.248;2022-12-01T11:12:41;3.47;;;3.17;;
13866;SDS011;7003;46.982;15.248;2022-12-01T11:15:18;5.43;;;3.63;;
13866;SDS011;7003;46.982;15.248;2022-12-01T11:17:50;5.23;;;4.30;;
13866;SDS011;7003;46.982;15.248;2022-12-01T11:20:27;4.70;;;4.03;;
13866;SDS011;7003;46.982;15.248;2022-12-01T11:26:00;4.93;;;4.50;;
13866;SDS011;7003;46.982;15.248;2022-12-01T11:28:37;5.07;;;4.47;;
13866;SDS011;7003;46.982;15.248;2022-12-01T11:31:12;8.30;;;5.77;;
13866;SDS011;7003;46.982;15.248;2022-12-01T11:33:43;6.77;;;5.03;;
13866;SDS011;7003;46.982;15.248;2022-12-01T11:36:22;5.57;;;4.17;;
13866;SDS011;7003;46.982;15.248;2022-12-01T11:38:57;8.00;;;5.40;;
13866;SDS011;7003;46.982;15.248;2022-12-01T11:41:28;6.20;;;4.53;;
13866;SDS011;7003;46.982;15.248;2022-12-01T11:44:01;4.83;;;4.00;;
13866;SDS011;7003;46.982;15.248;2022-12-01T11:46:33;5.77;;;4.50;;
13866;SDS011;7003;46.982;15.248;2022-12-01T11:49:05;4.57;;;3.70;;
13866;SDS011;7003;46.982;15.248;2022-12-01T11:51:41;6.00;;;4.53;;
13866;SDS011;7003;46.982;15.248;2022-12-01T11:54:15;4.70;;;4.30;;
13866;SDS011;7003;46.982;15.248;2022-12-01T11:56:45;7.50;;;5.10;;
13866;SDS011;7003;46.982;15.248;2022-12-01T11:59:16;4.63;;;3.50;;
13866;SDS011;7003;46.982;15.248;2022-12-01T12:01:58;6.50;;;4.80;;
13866;SDS011;7003;46.982;15.248;2022-12-01T12:04:41;6.73;;;4.23;;
13866;SDS011;7003;46.982;15.248;2022-12-01T12:07:25;5.47;;;4.00;;
13866;SDS011;7003;46.982;15.248;2022-12-01T12:10:11;7.30;;;6.33;;
13866;SDS011;7003;46.982;15.248;2022-12-01T12:12:56;6.43;;;4.50;;
13866;SDS011;7003;46.982;15.248;2022-12-01T12:15:35;6.43;;;5.83;;
13866;SDS011;7003;46.982;15.248;2022-12-01T12:18:19;6.97;;;6.13;;
13866;SDS011;7003;46.982;15.248;2022-12-01T12:20:59;6.50;;;5.17;;
13866;SDS011;7003;46.982;15.248;2022-12-01T12:26:49;5.63;;;4.27;;
13866;SDS011;7003;46.982;15.248;2022-12-01T12:29:26;6.80;;;4.70;;
13866;SDS011;7003;46.982;15.248;2022-12-01T12:32:18;5.87;;;4.90;;
13866;SDS011;7003;46.982;15.248;2022-12-01T12:35:02;7.50;;;6.50;;
13866;SDS011;7003;46.982;15.248;2022-12-01T12:37:45;7.17;;;5.93;;
13866;SDS011;7003;46.982;15.248;2022-12-01T12:40:22;6.33;;;5.07;;
13866;SDS011;7003;46.982;15.248;2022-12-01T12:43:05;10.37;;;5.50;;
13866;SDS011;7003;46.982;15.248;2022-12-01T12:48:59;11.10;;;5.10;;
13866;SDS011;7003;46.982;15.248;2022-12-01T12:51:45;6.07;;;5.07;;
13866;SDS011;7003;46.982;15.248;2022-12-01T12:54:19;8.93;;;5.63;;
13866;SDS011;7003;46.982;15.248;2022-12-01T12:56:53;6.47;;;4.97;;
13866;SDS011;7003;46.982;15.248;2022-12-01T12:59:28;8.33;;;6.40;;
13866;SDS011;7003;46.982;15.248;2022-12-01T13:02:02;14.43;;;8.17;;
13866;SDS011;7003;46.982;15.248;2022-12-01T13:04:42;7.63;;;6.07;;
13866;SDS011;7003;46.982;15.248;2022-12-01T13:07:22;10.03;;;7.73;;
13866;SDS011;7003;46.982;15.248;2022-12-01T13:09:59;11.07;;;7.63;;
13866;SDS011;7003;46.982;15.248;2022-12-01T13:12:34;7.60;;;5.77;;
13866;SDS011;7003;46.982;15.248;2022-12-01T13:15:10;8.07;;;7.27;;
13866;SDS011;7003;46.982;15.248;2022-12-01T13:17:41;7.40;;;5.73;;
13866;SDS011;7003;46.982;15.248;2022-12-01T13:20:14;7.07;;;5.27;;
13866;SDS011;7003;46.982;15.248;2022-12-01T13:22:43;6.17;;;4.83;;
13866;SDS011;7003;46.982;15.248;2022-12-01T13:25:20;5.40;;;4.77;;
13866;SDS011;7003;46.982;15.248;2022-12-01T13:27:53;4.77;;;4.13;;
13866;SDS011;7003;46.982;15.248;2022-12-01T13:30:26;8.70;;;6.33;;
13866;SDS011;7003;46.982;15.248;2022-12-01T13:32:59;6.17;;;5.30;;
13866;SDS011;7003;46.982;15.248;2022-12-01T13:35:31;6.97;;;4.93;;
13866;SDS011;7003;46.982;15.248;2022-12-01T13:38:17;7.33;;;4.83;;
13866;SDS011;7003;46.982;15.248;2022-12-01T13:40:47;8.97;;;5.63;;
13866;SDS011;7003;46.982;15.248;2022-12-01T13:43:18;7.43;;;5.63;;
13866;SDS011;7003;46.982;15.248;2022-12-01T13:45:47;5.33;;;4.60;;
13866;SDS011;7003;46.982;15.248;2022-12-01T13:48:26;7.60;;;5.27;;
13866;SDS011;7003;46.982;15.248;2022-12-01T13:51:16;5.97;;;4.60;;
13866;SDS011;7003;46.982;15.248;2022-12-01T13:56:35;8.63;;;5.50;;
13866;SDS011;7003;46.982;15.248;2022-12-01T14:02:32;7.97;;;6.70;;
13866;SDS011;7003;46.982;15.248;2022-12-01T14:08:13;7.37;;;6.00;;
13866;SDS011;7003;46.982;15.248;2022-12-01T14:10:50;7.73;;;6.10;;
13866;SDS011;7003;46.982;15.248;2022-12-01T14:13:22;7.30;;;5.57;;
13866;SDS011;7003;46.982;15.248;2022-12-01T14:15:52;7.67;;;6.30;;
13866;SDS011;7003;46.982;15.248;2022-12-01T14:18:28;6.50;;;5.43;;
13866;SDS011;7003;46.982;15.248;2022-12-01T14:21:04;6.40;;;5.80;;
13866;SDS011;7003;46.982;15.248;2022-12-01T14:23:37;6.83;;;5.20;;
13866;SDS011;7003;46.982;15.248;2022-12-01T14:26:24;10.20;;;6.17;;
13866;SDS011;7003;46.982;15.248;2022-12-01T14:35:00;12.30;;;6.83;;
13866;SDS011;7003;46.982;15.248;2022-12-01T14:37:35;9.80;;;6.90;;
13866;SDS011;7003;46.982;15.248;2022-12-01T14:40:12;10.20;;;6.83;;
13866;SDS011;7003;46.982;15.248;2022-12-01T14:42:46;11.47;;;9.07;;
13866;SDS011;7003;46.982;15.248;2022-12-01T14:45:37;9.83;;;7.33;;
13866;SDS011;7003;46.982;15.248;2022-12-01T14:48:11;8.07;;;6.43;;
13866;SDS011;7003;46.982;15.248;2022-12-01T14:50:45;8.47;;;5.80;;
13866;SDS011;7003;46.982;15.248;2022-12-01T14:53:20;8.87;;;7.73;;
13866;SDS011;7003;46.982;15.248;2022-12-01T14:55:53;10.50;;;7.20;;
13866;SDS011;7003;46.982;15.248;2022-12-01T14:58:27;8.43;;;7.23;;
13866;SDS011;7003;46.982;15.248;2022-12-01T15:01:01;10.20;;;6.77;;
13866;SDS011;7003;46.982;15.248;2022-12-01T15:03:34;8.47;;;7.33;;
13866;SDS011;7003;46.982;15.248;2022-12-01T15:06:06;10.13;;;8.30;;
13866;SDS011;7003;46.982;15.248;2022-12-01T15:08:37;12.00;;;8.70;;
13866;SDS011;7003;46.982;15.248;2022-12-01T15:11:12;13.17;;;8.30;;
13866;SDS011;7003;46.982;15.248;2022-12-01T15:13:47;7.30;;;5.20;;
13866;SDS011;7003;46.982;15.248;2022-12-01T15:16:18;7.87;;;6.37;;
13866;SDS011;7003;46.982;15.248;2022-12-01T15:18:47;12.97;;;10.03;;
13866;SDS011;7003;46.982;15.248;2022-12-01T15:21:15;12.93;;;9.50;;
13866;SDS011;7003;46.982;15.248;2022-12-01T15:23:54;11.83;;;8.07;;
13866;SDS011;7003;46.982;15.248;2022-12-01T15:26:27;11.10;;;7.73;;
13866;SDS011;7003;46.982;15.248;2022-12-01T15:29:03;16.03;;;7.47;;
13866;SDS011;7003;46.982;15.248;2022-12-01T15:31:45;15.65;;;11.52;;
13866;SDS011;7003;46.982;15.248;2022-12-01T15:34:16;10.33;;;8.37;;
13866;SDS011;7003;46.982;15.248;2022-12-01T15:36:51;14.57;;;10.10;;
13866;SDS011;7003;46.982;15.248;2022-12-01T15:39:22;8.43;;;7.17;;
13866;SDS011;7003;46.982;15.248;2022-12-01T15:41:56;7.67;;;6.10;;
13866;SDS011;7003;46.982;15.248;2022-12-01T15:44:27;8.90;;;6.47;;
13866;SDS011;7003;46.982;15.248;2022-12-01T15:50:01;7.50;;;6.10;;
13866;SDS011;7003;46.982;15.248;2022-12-01T15:52:30;7.43;;;5.80;;
13866;SDS011;7003;46.982;15.248;2022-12-01T15:55:00;10.23;;;6.90;;
13866;SDS011;7003;46.982;15.248;2022-12-01T15:57:31;10.23;;;6.83;;